Time;durP1;ratioP1;P1;durP2;ratioP2;P2;SDS_P1;SDS_P2;PMS_P1;PMS_P2;Temp;Humidity;BMP_temperature;BMP_pressure;BME280_temperature;BME280_humidity;BME280_pressure;Samples;Min_cycle;Max_cycle;Signal;HPM_P1;HPM_P2
2023/11/30 00:01:14;;;;;;;8.32;5.00;;;0.10;99.90;;;;;;5084328;28;20020;-84
2023/11/30 00:03:39;;;;;;;10.85;5.97;;;0.10;99.90;;;;;;5098654;28;20073;-84
2023/11/30 00:06:05;;;;;;;9.48;5.20;;;0.10;99.90;;;;;;5097726;28;20497;-85
2023/11/30 00:08:31;;;;;;;8.50;6.30;;;0.10;99.90;;;;;;5100080;28;20112;-86
2023/11/30 00:10:57;;;;;;;8.48;5.63;;;0.10;99.90;;;;;;5100197;28;20040;-85
2023/11/30 00:13:23;;;;;;;7.88;4.03;;;0.10;99.90;;;;;;5109603;28;20035;-85
2023/11/30 00:15:48;;;;;;;8.90;6.40;;;0.10;99.90;;;;;;5116729;28;20012;-85
2023/11/30 00:18:14;;;;;;;6.70;4.57;;;0.10;99.90;;;;;;5118050;27;20089;-85
2023/11/30 00:20:40;;;;;;;7.25;4.50;;;0.10;99.90;;;;;;5101816;28;20030;-85
2023/11/30 00:23:06;;;;;;;11.82;4.95;;;0.10;99.90;;;;;;5113578;28;20500;-85
2023/11/30 00:25:33;;;;;;;6.13;4.20;;;0.10;99.90;;;;;;5114204;28;20015;-87
2023/11/30 00:27:59;;;;;;;7.15;4.63;;;0.10;99.90;;;;;;5116728;28;20016;-85
2023/11/30 00:30:25;;;;;;;6.63;4.57;;;0.10;99.90;;;;;;5117998;28;20049;-85
2023/11/30 00:32:51;;;;;;;6.28;4.82;;;0.20;99.90;;;;;;5107393;28;20020;-86
2023/11/30 00:35:16;;;;;;;6.60;4.38;;;0.20;99.90;;;;;;5127173;27;20019;-86
2023/11/30 00:37:42;;;;;;;5.85;4.18;;;0.20;99.90;;;;;;5113417;28;20023;-86
2023/11/30 00:40:09;;;;;;;6.65;4.55;;;0.20;99.90;;;;;;5114029;28;20020;-87
2023/11/30 00:42:34;;;;;;;4.72;3.67;;;0.10;99.90;;;;;;5095903;28;20507;-88
2023/11/30 00:45:00;;;;;;;7.03;4.30;;;0.20;99.90;;;;;;5111437;28;20051;-87
2023/11/30 00:47:28;;;;;;;6.97;4.28;;;0.20;99.90;;;;;;5124574;28;20026;-88
2023/11/30 00:49:54;;;;;;;7.35;4.90;;;0.20;99.90;;;;;;5133185;28;20015;-87
2023/11/30 00:52:20;;;;;;;5.82;3.75;;;0.20;99.90;;;;;;5091177;28;20032;-87
2023/11/30 00:54:45;;;;;;;8.48;4.78;;;0.20;99.90;;;;;;5094751;28;20028;-85
2023/11/30 00:57:11;;;;;;;5.13;3.70;;;0.20;99.90;;;;;;5112147;28;20488;-86
2023/11/30 00:59:37;;;;;;;8.27;5.70;;;0.20;99.90;;;;;;5090847;28;20035;-87
2023/11/30 01:02:03;;;;;;;5.50;3.85;;;0.20;99.90;;;;;;5107885;28;20035;-87
2023/11/30 01:04:29;;;;;;;6.47;5.10;;;0.20;99.90;;;;;;5114476;28;20023;-85
2023/11/30 01:06:55;;;;;;;7.15;4.70;;;0.20;99.90;;;;;;5095013;28;20045;-85
2023/11/30 01:09:20;;;;;;;6.25;3.80;;;0.20;99.90;;;;;;5095154;28;20501;-87
2023/11/30 01:11:46;;;;;;;5.78;3.92;;;0.20;99.90;;;;;;5101254;28;20023;-86
2023/11/30 01:14:12;;;;;;;6.80;4.40;;;0.20;99.90;;;;;;5117520;28;20110;-86
2023/11/30 01:16:38;;;;;;;7.20;4.50;;;0.20;99.90;;;;;;5117274;28;20027;-86
2023/11/30 01:19:05;;;;;;;4.93;3.88;;;0.30;99.90;;;;;;5110554;28;20024;-83
2023/11/30 01:21:31;;;;;;;5.40;3.67;;;0.20;99.90;;;;;;5094850;28;20090;-85
2023/11/30 01:23:57;;;;;;;9.40;4.80;;;0.20;99.90;;;;;;5112061;28;20373;-86
2023/11/30 01:26:22;;;;;;;7.55;5.03;;;0.20;99.90;;;;;;5115068;28;20035;-85
2023/11/30 01:28:48;;;;;;;6.38;4.80;;;0.20;99.90;;;;;;5130028;27;20039;-87
2023/11/30 01:31:14;;;;;;;8.38;4.95;;;0.20;99.90;;;;;;5111504;28;20035;-85
2023/11/30 01:33:40;;;;;;;7.20;5.07;;;0.20;99.90;;;;;;5123083;27;20027;-87
2023/11/30 01:36:07;;;;;;;9.27;5.35;;;0.20;99.90;;;;;;5099610;28;20051;-88
2023/11/30 01:38:32;;;;;;;8.75;5.15;;;0.20;99.90;;;;;;5116963;28;20036;-85
2023/11/30 01:40:58;;;;;;;6.03;4.15;;;0.20;99.90;;;;;;5123610;28;20019;-86
2023/11/30 01:43:26;;;;;;;4.85;4.00;;;0.20;99.90;;;;;;5133040;28;20032;-85
2023/11/30 01:45:52;;;;;;;7.57;4.72;;;0.20;99.90;;;;;;5121155;28;20012;-85
2023/11/30 01:48:18;;;;;;;9.23;4.70;;;0.20;99.90;;;;;;5092574;28;20396;-85
2023/11/30 01:50:45;;;;;;;6.97;4.57;;;0.20;99.90;;;;;;5116459;28;20028;-86
2023/11/30 01:53:11;;;;;;;7.47;4.63;;;0.20;99.90;;;;;;5105992;28;20016;-85
2023/11/30 01:55:37;;;;;;;7.90;4.60;;;0.20;99.90;;;;;;5096035;28;20023;-84
2023/11/30 01:58:04;;;;;;;7.45;4.50;;;0.20;99.90;;;;;;5088394;27;20031;-84
2023/11/30 02:00:31;;;;;;;5.20;4.35;;;0.20;99.90;;;;;;5132075;27;20111;-85
2023/11/30 02:03:01;;;;;;;7.40;4.82;;;0.20;99.90;;;;;;5112902;28;20043;-84
2023/11/30 02:05:27;;;;;;;9.80;4.65;;;0.20;99.90;;;;;;5110590;28;20024;-83
2023/11/30 02:07:53;;;;;;;6.07;4.72;;;0.20;99.90;;;;;;5114201;28;20022;-83
2023/11/30 02:10:19;;;;;;;7.05;4.28;;;0.20;99.90;;;;;;5112956;28;20023;-84
2023/11/30 02:12:44;;;;;;;4.75;3.53;;;0.20;99.90;;;;;;5124184;28;20127;-83
2023/11/30 02:15:10;;;;;;;8.90;4.07;;;0.20;99.90;;;;;;5121970;28;20034;-84
2023/11/30 02:17:36;;;;;;;7.93;4.35;;;0.20;99.90;;;;;;5116067;28;20020;-85
2023/11/30 02:20:02;;;;;;;6.15;3.55;;;0.20;99.90;;;;;;5108995;28;20031;-85
2023/11/30 02:22:28;;;;;;;6.07;4.28;;;0.20;99.90;;;;;;5097026;28;20020;-83
2023/11/30 02:24:54;;;;;;;5.28;3.60;;;0.20;99.90;;;;;;5114984;28;20027;-85
2023/11/30 02:27:20;;;;;;;5.97;4.38;;;0.20;99.90;;;;;;5093403;28;20390;-84
2023/11/30 02:29:45;;;;;;;5.30;4.25;;;0.20;99.90;;;;;;5114442;28;20016;-83
2023/11/30 02:32:12;;;;;;;5.20;3.90;;;0.20;99.90;;;;;;5116624;28;20019;-84
2023/11/30 02:34:39;;;;;;;6.47;4.38;;;0.20;99.90;;;;;;5102451;28;20020;-85
2023/11/30 02:37:04;;;;;;;5.53;4.03;;;0.20;99.90;;;;;;5125951;28;20411;-84
2023/11/30 02:39:31;;;;;;;4.75;4.18;;;0.20;99.90;;;;;;5126821;28;20050;-84
2023/11/30 02:41:57;;;;;;;7.18;4.60;;;0.20;99.90;;;;;;5115851;28;20373;-84
2023/11/30 02:44:23;;;;;;;7.05;4.20;;;0.20;99.90;;;;;;5115359;28;20060;-84
2023/11/30 02:46:49;;;;;;;5.80;3.85;;;0.20;99.90;;;;;;5120775;28;20062;-84
2023/11/30 02:49:16;;;;;;;5.20;3.88;;;0.20;99.90;;;;;;5114199;28;20102;-84
2023/11/30 02:51:42;;;;;;;;;;;0.30;99.90;;;;;;5098536;28;20212;-85
2023/11/30 02:54:07;;;;;;;6.45;3.90;;;0.20;99.90;;;;;;5100839;28;19956;-84
2023/11/30 02:56:41;;;;;;;6.13;3.95;;;0.20;99.90;;;;;;5114957;28;20028;-84
2023/11/30 02:59:07;;;;;;;6.55;4.32;;;0.20;99.90;;;;;;5113070;28;20113;-86
2023/11/30 03:01:32;;;;;;;6.90;3.97;;;0.20;99.90;;;;;;5114923;28;20055;-85
2023/11/30 03:03:58;;;;;;;10.40;4.15;;;0.20;99.90;;;;;;5114425;28;20024;-84
2023/11/30 03:06:24;;;;;;;4.88;3.83;;;0.20;99.90;;;;;;5114628;28;20016;-85
2023/11/30 03:08:50;;;;;;;6.57;4.65;;;0.20;99.90;;;;;;5114629;28;20023;-85
2023/11/30 03:11:16;;;;;;;6.82;4.78;;;0.20;99.90;;;;;;5098176;28;20024;-85
2023/11/30 03:13:41;;;;;;;5.40;4.35;;;0.30;99.90;;;;;;5096756;28;20037;-85
2023/11/30 03:16:08;;;;;;;5.30;4.00;;;0.30;99.90;;;;;;5097583;28;20018;-85
2023/11/30 03:18:33;;;;;;;7.10;4.43;;;0.20;99.90;;;;;;5114727;28;20032;-85
2023/11/30 03:20:59;;;;;;;8.20;4.53;;;0.30;99.90;;;;;;5096003;28;20516;-86
2023/11/30 03:23:25;;;;;;;7.30;4.18;;;0.30;99.90;;;;;;5114394;28;20106;-84
2023/11/30 03:25:51;;;;;;;4.53;3.70;;;0.30;99.90;;;;;;5113061;28;20023;-84
2023/11/30 03:28:16;;;;;;;9.55;5.00;;;0.30;99.90;;;;;;5114385;28;20388;-84
2023/11/30 03:30:42;;;;;;;5.35;4.55;;;0.30;99.90;;;;;;5092105;28;20046;-85
2023/11/30 03:33:08;;;;;;;7.45;4.82;;;0.30;99.90;;;;;;5111144;28;20520;-83
2023/11/30 03:35:34;;;;;;;5.75;4.28;;;0.30;99.90;;;;;;5113418;28;20024;-84
2023/11/30 03:38:00;;;;;;;8.52;4.70;;;0.30;99.90;;;;;;5114137;28;20476;-84
2023/11/30 03:40:26;;;;;;;7.45;5.22;;;0.30;99.90;;;;;;5096512;28;20031;-84
2023/11/30 03:42:52;;;;;;;9.65;5.68;;;0.30;99.90;;;;;;5119271;28;20018;-86
2023/11/30 03:45:18;;;;;;;8.73;4.88;;;0.30;99.90;;;;;;5114365;28;20520;-84
2023/11/30 03:47:44;;;;;;;8.57;5.45;;;0.30;99.90;;;;;;5095803;28;20016;-83
2023/11/30 03:50:09;;;;;;;11.40;6.57;;;0.30;99.90;;;;;;5088901;28;20480;-85
2023/11/30 03:52:35;;;;;;;9.73;5.63;;;0.30;99.90;;;;;;5108205;28;20028;-84
2023/11/30 03:55:01;;;;;;;8.27;5.85;;;0.30;99.90;;;;;;5099117;28;20008;-83
2023/11/30 03:57:27;;;;;;;7.63;5.22;;;0.30;99.90;;;;;;5115010;28;20019;-84
2023/11/30 03:59:52;;;;;;;8.45;5.72;;;0.30;99.90;;;;;;5095702;28;20043;-85
2023/11/30 04:02:18;;;;;;;9.13;6.70;;;0.30;99.90;;;;;;5111587;28;20024;-84
2023/11/30 04:04:45;;;;;;;10.25;6.47;;;0.30;99.90;;;;;;5116431;28;20023;-84
2023/11/30 04:07:11;;;;;;;8.38;6.13;;;0.30;99.90;;;;;;5114425;28;20023;-85
2023/11/30 04:09:40;;;;;;;8.27;5.20;;;0.30;99.90;;;;;;5116022;28;20024;-86
2023/11/30 04:12:06;;;;;;;10.13;6.68;;;0.30;99.90;;;;;;5117252;28;20373;-85
2023/11/30 04:14:32;;;;;;;11.90;7.70;;;0.30;99.90;;;;;;5115230;28;20024;-85
2023/11/30 04:16:58;;;;;;;11.30;6.78;;;0.30;99.90;;;;;;5099125;28;20448;-84
2023/11/30 04:19:24;;;;;;;11.27;6.55;;;0.30;99.90;;;;;;5114203;28;20027;-85
2023/11/30 04:21:49;;;;;;;11.80;6.60;;;0.30;99.90;;;;;;5109386;28;20016;-84
2023/11/30 04:24:16;;;;;;;10.10;6.32;;;0.30;99.90;;;;;;5115374;28;20027;-85
2023/11/30 04:26:41;;;;;;;8.80;6.70;;;0.30;99.90;;;;;;5113473;28;20018;-86
2023/11/30 04:29:07;;;;;;;7.55;5.65;;;0.30;99.90;;;;;;5118891;28;20512;-85
2023/11/30 04:31:33;;;;;;;7.50;5.43;;;0.30;99.90;;;;;;5113830;28;20023;-85
2023/11/30 04:33:59;;;;;;;10.23;7.57;;;0.30;99.90;;;;;;5111783;28;20016;-85
2023/11/30 04:36:24;;;;;;;10.18;6.72;;;0.40;99.90;;;;;;5110047;28;20028;-83
2023/11/30 04:38:50;;;;;;;10.18;7.43;;;0.30;99.90;;;;;;5096432;28;20066;-86
2023/11/30 04:41:16;;;;;;;12.50;6.03;;;0.30;99.90;;;;;;5096831;28;20115;-86
2023/11/30 04:43:42;;;;;;;13.07;6.47;;;0.30;99.90;;;;;;5116301;28;20047;-85
2023/11/30 04:46:08;;;;;;;9.98;7.57;;;0.40;99.90;;;;;;5117937;28;20050;-86
2023/11/30 04:48:34;;;;;;;8.88;6.75;;;0.30;99.90;;;;;;5108335;28;20028;-86
2023/11/30 04:50:59;;;;;;;13.38;9.10;;;0.40;99.90;;;;;;5098160;28;20019;-85
2023/11/30 04:53:25;;;;;;;12.18;8.13;;;0.40;99.90;;;;;;5131147;28;20015;-86
2023/11/30 04:55:51;;;;;;;13.30;8.93;;;0.40;99.90;;;;;;5131239;28;20073;-85
2023/11/30 04:58:17;;;;;;;11.65;8.05;;;0.40;99.90;;;;;;5120280;28;20020;-88
2023/11/30 05:00:43;;;;;;;14.07;9.52;;;0.40;99.90;;;;;;5110661;28;20030;-87
2023/11/30 05:03:08;;;;;;;13.65;9.77;;;0.40;99.90;;;;;;5136458;28;20047;-83
2023/11/30 05:05:34;;;;;;;17.58;8.65;;;0.40;99.90;;;;;;5132721;28;20024;-84
2023/11/30 05:08:00;;;;;;;11.95;9.02;;;0.40;99.90;;;;;;5129276;28;20023;-86
2023/11/30 05:10:26;;;;;;;14.95;9.88;;;0.40;99.90;;;;;;5111519;28;20030;-85
2023/11/30 05:12:52;;;;;;;18.02;9.63;;;0.30;99.90;;;;;;5096004;28;20020;-84
2023/11/30 05:15:18;;;;;;;15.30;10.07;;;0.40;99.90;;;;;;5110750;28;20023;-84
2023/11/30 05:17:43;;;;;;;19.70;11.55;;;0.40;99.90;;;;;;5107232;28;20107;-85
2023/11/30 05:20:10;;;;;;;16.35;11.70;;;0.40;99.90;;;;;;5111510;28;20039;-85
2023/11/30 05:22:35;;;;;;;19.27;12.98;;;0.40;99.90;;;;;;5115813;28;20016;-82
2023/11/30 05:25:02;;;;;;;16.98;10.70;;;0.40;99.90;;;;;;5100703;28;20533;-84
2023/11/30 05:27:28;;;;;;;14.75;10.02;;;0.40;99.90;;;;;;5096991;28;20024;-85
2023/11/30 05:29:54;;;;;;;15.95;10.40;;;0.40;99.90;;;;;;5110569;28;20106;-84
2023/11/30 05:32:21;;;;;;;14.05;11.90;;;0.40;99.90;;;;;;5107412;28;20028;-85
2023/11/30 05:34:47;;;;;;;17.45;9.77;;;0.40;99.90;;;;;;5113701;28;20016;-85
2023/11/30 05:37:13;;;;;;;15.40;10.20;;;0.40;99.90;;;;;;5106820;28;20028;-86
2023/11/30 05:39:39;;;;;;;16.73;10.15;;;0.40;99.90;;;;;;5082987;28;20036;-86
2023/11/30 05:42:05;;;;;;;19.17;8.85;;;0.40;99.90;;;;;;5095215;28;20020;-86
2023/11/30 05:44:31;;;;;;;11.65;9.82;;;0.40;99.90;;;;;;5113636;28;20131;-87
2023/11/30 05:46:56;;;;;;;17.35;9.65;;;0.40;99.90;;;;;;5094571;28;20103;-85
2023/11/30 05:49:22;;;;;;;14.30;10.45;;;0.40;99.90;;;;;;5113527;28;20144;-86
2023/11/30 05:51:48;;;;;;;16.08;10.98;;;0.40;99.90;;;;;;5112851;28;20103;-86
2023/11/30 05:54:15;;;;;;;17.73;11.65;;;0.40;99.90;;;;;;5076702;28;20467;-86
2023/11/30 05:56:41;;;;;;;16.60;10.80;;;0.40;99.90;;;;;;5084862;28;20055;-84
2023/11/30 05:59:07;;;;;;;15.27;10.88;;;0.40;99.90;;;;;;5115513;28;20067;-86
2023/11/30 06:01:33;;;;;;;15.30;10.02;;;0.40;99.90;;;;;;5090307;28;20028;-88
2023/11/30 06:03:59;;;;;;;14.75;10.10;;;0.40;99.90;;;;;;5097037;28;20435;-87
2023/11/30 06:06:25;;;;;;;13.43;10.20;;;0.40;99.90;;;;;;5117627;28;20070;-85
2023/11/30 06:08:51;;;;;;;15.32;11.13;;;0.30;99.90;;;;;;5118478;27;20023;-84
2023/11/30 06:11:17;;;;;;;17.55;11.27;;;0.40;99.90;;;;;;5118098;28;20024;-85
2023/11/30 06:13:43;;;;;;;14.60;10.50;;;0.40;99.90;;;;;;5128743;28;20083;-85
2023/11/30 06:16:09;;;;;;;13.93;9.48;;;0.40;99.90;;;;;;5120597;28;20032;-82
2023/11/30 06:18:35;;;;;;;20.20;13.32;;;0.40;99.90;;;;;;5109431;28;20656;-81
2023/11/30 06:21:00;;;;;;;19.38;12.48;;;0.30;99.90;;;;;;5103312;28;20095;-86
2023/11/30 06:23:26;;;;;;;23.63;13.90;;;0.30;99.90;;;;;;5108249;28;20047;-82
2023/11/30 06:25:52;;;;;;;16.85;11.52;;;0.30;99.90;;;;;;5098986;28;20016;-81
2023/11/30 06:28:20;;;;;;;22.38;12.20;;;0.40;99.90;;;;;;5113536;28;20092;-82
2023/11/30 06:30:47;;;;;;;16.48;11.23;;;0.40;99.90;;;;;;5116221;28;20020;-86
2023/11/30 06:33:13;;;;;;;18.50;10.73;;;0.40;99.90;;;;;;5097399;28;20438;-85
2023/11/30 06:35:39;;;;;;;17.90;11.52;;;0.40;99.90;;;;;;5097257;28;20256;-88
2023/11/30 06:38:04;;;;;;;19.60;10.82;;;0.40;99.90;;;;;;5122621;28;20028;-82
2023/11/30 06:40:30;;;;;;;20.92;13.68;;;0.40;99.90;;;;;;5116905;27;20047;-87
2023/11/30 06:42:56;;;;;;;16.73;12.70;;;0.40;99.90;;;;;;5097234;28;20016;-86
2023/11/30 06:45:22;;;;;;;29.50;15.80;;;0.40;99.90;;;;;;5115713;28;20055;-88
2023/11/30 06:47:47;;;;;;;25.65;15.23;;;0.40;99.90;;;;;;5110552;28;20043;-86
2023/11/30 06:50:13;;;;;;;25.95;14.43;;;0.40;99.90;;;;;;5128111;28;20023;-87
2023/11/30 06:52:39;;;;;;;21.13;15.38;;;0.40;99.90;;;;;;5096177;28;20546;-86
2023/11/30 06:55:05;;;;;;;26.77;17.50;;;0.40;99.90;;;;;;5106329;28;20107;-84
2023/11/30 06:57:31;;;;;;;28.77;16.00;;;0.40;99.90;;;;;;5096341;28;20455;-84
2023/11/30 06:59:57;;;;;;;26.75;16.40;;;0.40;99.90;;;;;;5097336;28;20114;-89
2023/11/30 07:02:23;;;;;;;26.75;17.30;;;0.50;99.90;;;;;;5097196;28;20116;-86
2023/11/30 07:04:49;;;;;;;25.95;15.23;;;0.50;99.90;;;;;;5115147;28;20051;-85
2023/11/30 07:07:14;;;;;;;23.33;15.13;;;0.40;99.90;;;;;;5097204;28;20114;-87
2023/11/30 07:09:40;;;;;;;26.50;15.52;;;0.50;99.90;;;;;;5115461;28;20469;-87
2023/11/30 07:12:07;;;;;;;31.25;17.13;;;0.40;99.90;;;;;;5097836;28;20027;-86
2023/11/30 07:14:37;;;;;;;31.58;15.30;;;0.50;99.90;;;;;;5125818;28;20011;-84
2023/11/30 07:17:03;;;;;;;24.40;15.30;;;0.50;99.90;;;;;;5134814;28;20026;-86
2023/11/30 07:19:29;;;;;;;23.92;14.85;;;0.50;99.90;;;;;;5121221;28;20071;-85
2023/11/30 07:21:55;;;;;;;31.45;18.10;;;0.50;99.90;;;;;;5122364;28;20042;-85
2023/11/30 07:24:21;;;;;;;22.42;14.82;;;0.50;99.90;;;;;;5115868;28;20397;-85
2023/11/30 07:26:49;;;;;;;19.80;12.93;;;0.50;99.90;;;;;;5103068;28;20020;-88
2023/11/30 07:29:15;;;;;;;24.95;13.60;;;0.50;99.90;;;;;;5107023;28;20024;-89
2023/11/30 07:31:44;;;;;;;24.13;15.00;;;0.50;99.90;;;;;;5082694;28;20030;-87
2023/11/30 07:34:10;;;;;;;25.52;15.05;;;0.50;99.90;;;;;;5116203;28;20027;-88
2023/11/30 07:36:36;;;;;;;20.77;14.45;;;0.50;99.90;;;;;;5116051;28;20023;-88
2023/11/30 07:39:03;;;;;;;23.77;13.85;;;0.50;99.90;;;;;;5106855;28;20035;-87
2023/11/30 07:41:30;;;;;;;20.17;10.70;;;0.50;99.90;;;;;;5112050;28;20022;-87
2023/11/30 07:43:55;;;;;;;18.48;11.23;;;0.50;99.90;;;;;;5109427;28;20052;-87
2023/11/30 07:46:21;;;;;;;14.63;9.65;;;0.40;99.90;;;;;;5107884;28;20053;-87
2023/11/30 07:48:47;;;;;;;19.45;11.48;;;0.40;99.90;;;;;;5115691;28;20062;-86
2023/11/30 07:51:13;;;;;;;9.70;6.50;;;0.30;99.90;;;;;;5103538;28;20442;-86
2023/11/30 07:53:39;;;;;;;16.67;9.88;;;0.30;99.90;;;;;;5094900;28;20033;-85
2023/11/30 07:56:05;;;;;;;18.77;7.63;;;0.20;99.90;;;;;;5103199;28;20032;-86
2023/11/30 07:58:31;;;;;;;11.95;6.38;;;0.20;99.90;;;;;;5117469;28;20523;-86
2023/11/30 08:00:58;;;;;;;63.60;16.00;;;0.20;99.90;;;;;;5097518;28;20028;-85
2023/11/30 08:03:23;;;;;;;27.13;13.05;;;0.20;99.90;;;;;;5103397;28;20032;-86
2023/11/30 08:05:49;;;;;;;200.82;40.85;;;0.10;99.90;;;;;;5120532;28;20020;-86
2023/11/30 08:08:15;;;;;;;18.23;10.98;;;0.20;99.90;;;;;;5095570;28;20100;-87
2023/11/30 08:10:41;;;;;;;23.35;9.73;;;0.20;99.90;;;;;;5094505;28;20047;-86
2023/11/30 08:13:10;;;;;;;18.58;10.25;;;0.10;99.90;;;;;;5099238;28;20020;-84
2023/11/30 08:15:37;;;;;;;28.00;13.32;;;0.10;99.90;;;;;;5130998;28;20031;-84
2023/11/30 08:18:04;;;;;;;14.60;10.00;;;0.10;99.90;;;;;;5131008;28;20044;-84
2023/11/30 08:20:29;;;;;;;20.65;11.55;;;0.10;99.90;;;;;;5134914;28;20032;-85
2023/11/30 08:22:55;;;;;;;18.42;11.60;;;0.10;99.90;;;;;;5136161;28;20031;-85
2023/11/30 08:25:21;;;;;;;33.88;10.88;;;0.10;99.90;;;;;;5107397;28;20028;-84
2023/11/30 08:27:47;;;;;;;23.27;11.45;;;0.00;99.90;;;;;;5098813;28;20026;-87
2023/11/30 08:30:13;;;;;;;40.10;14.25;;;-0.10;99.90;;;;;;5099363;28;20047;-86
2023/11/30 08:32:39;;;;;;;18.85;13.30;;;0.00;99.90;;;;;;5117135;28;20038;-85
2023/11/30 08:35:08;;;;;;;22.52;11.95;;;0.00;99.90;;;;;;5108648;28;20023;-86
2023/11/30 08:37:34;;;;;;;18.40;11.65;;;0.10;99.90;;;;;;5112737;28;20019;-86
2023/11/30 08:39:59;;;;;;;18.00;9.70;;;0.10;99.90;;;;;;5128746;28;20036;-85
2023/11/30 08:42:26;;;;;;;20.90;10.02;;;0.10;99.90;;;;;;5098601;28;20031;-85
2023/11/30 08:44:52;;;;;;;23.88;10.18;;;0.00;99.90;;;;;;5083470;28;20051;-86
2023/11/30 08:47:18;;;;;;;14.48;8.55;;;0.00;99.90;;;;;;5097793;28;20023;-87
2023/11/30 08:49:44;;;;;;;13.30;9.15;;;-0.10;99.90;;;;;;5102458;28;20109;-86
2023/11/30 08:52:09;;;;;;;15.13;9.10;;;-0.30;99.90;;;;;;5098425;28;20019;-87
2023/11/30 08:54:35;;;;;;;14.77;9.48;;;-0.30;99.90;;;;;;5083075;28;20031;-85
2023/11/30 08:57:01;;;;;;;16.60;10.50;;;-0.30;99.90;;;;;;5103940;28;20039;-86
2023/11/30 08:59:27;;;;;;;12.48;8.57;;;-0.30;99.90;;;;;;5108571;28;20074;-87
2023/11/30 09:01:54;;;;;;;14.73;10.00;;;-0.40;99.90;;;;;;5087731;28;20020;-86
2023/11/30 09:04:20;;;;;;;14.27;10.57;;;-0.40;99.90;;;;;;5095621;28;20035;-89
2023/11/30 09:06:45;;;;;;;13.90;9.00;;;-0.30;99.90;;;;;;5096467;28;20028;-85
2023/11/30 09:09:14;;;;;;;8.50;7.07;;;-0.30;99.90;;;;;;5114019;28;20035;-85
2023/11/30 09:11:42;;;;;;;13.73;6.78;;;-0.30;99.90;;;;;;5096221;28;20072;-86
2023/11/30 09:14:08;;;;;;;17.88;9.63;;;-0.40;99.90;;;;;;5114688;28;20034;-87
2023/11/30 09:16:34;;;;;;;10.07;6.88;;;-0.40;99.90;;;;;;5100486;28;20376;-87
2023/11/30 09:19:00;;;;;;;14.23;9.70;;;-0.40;99.90;;;;;;5094738;28;20035;-86
2023/11/30 09:21:25;;;;;;;13.38;9.00;;;-0.40;99.90;;;;;;5110892;28;20020;-86
2023/11/30 09:23:51;;;;;;;11.65;7.65;;;-0.50;99.90;;;;;;5123925;28;20024;-87
2023/11/30 09:26:20;;;;;;;10.68;7.25;;;-0.50;99.90;;;;;;5111298;28;20061;-86
2023/11/30 09:28:46;;;;;;;58.55;15.50;;;-0.60;99.90;;;;;;5128248;28;20031;-85
2023/11/30 09:31:12;;;;;;;10.63;6.50;;;-0.60;99.90;;;;;;5116155;28;20028;-88
2023/11/30 09:33:38;;;;;;;10.07;6.45;;;-0.50;99.90;;;;;;5116813;28;20023;-87
2023/11/30 09:36:04;;;;;;;10.57;7.85;;;-0.60;99.90;;;;;;5118294;28;20016;-85
2023/11/30 09:38:30;;;;;;;19.50;9.95;;;-0.60;99.90;;;;;;5118316;28;20040;-87
2023/11/30 09:40:56;;;;;;;19.17;9.85;;;-0.70;99.90;;;;;;5106839;28;20062;-86
2023/11/30 09:43:24;;;;;;;14.23;9.90;;;-0.70;99.90;;;;;;5114823;28;20024;-87
2023/11/30 09:45:52;;;;;;;16.92;9.85;;;-0.70;99.90;;;;;;5119136;28;20426;-87
2023/11/30 09:48:18;;;;;;;12.93;8.75;;;-0.60;99.90;;;;;;5129501;28;20082;-85
2023/11/30 09:50:44;;;;;;;14.40;9.43;;;-0.60;99.90;;;;;;5114688;28;20388;-88
2023/11/30 09:53:10;;;;;;;17.75;9.57;;;-0.60;99.90;;;;;;5111235;28;20120;-85
2023/11/30 09:55:37;;;;;;;10.75;7.63;;;-0.60;99.90;;;;;;5123373;28;20464;-86
2023/11/30 09:58:03;;;;;;;8.48;6.18;;;-0.60;99.90;;;;;;5134515;28;20461;-85
2023/11/30 10:00:29;;;;;;;13.93;7.70;;;-0.70;99.90;;;;;;5099860;28;20027;-85
2023/11/30 10:02:59;;;;;;;13.30;8.00;;;-0.90;99.90;;;;;;5117605;28;20046;-86
2023/11/30 10:05:26;;;;;;;12.93;9.93;;;-0.90;99.90;;;;;;5099485;28;20854;-86
2023/11/30 10:07:52;;;;;;;12.32;6.20;;;-0.90;99.90;;;;;;5117492;28;20376;-85
2023/11/30 10:10:18;;;;;;;11.50;7.40;;;-0.90;99.90;;;;;;5098361;28;20059;-85
2023/11/30 10:12:44;;;;;;;10.73;7.55;;;-1.10;99.90;;;;;;5115213;28;20073;-87
2023/11/30 10:15:10;;;;;;;10.60;6.55;;;-1.10;99.90;;;;;;5098869;28;20032;-87
2023/11/30 10:17:39;;;;;;;9.43;5.03;;;-1.10;99.90;;;;;;5093268;28;20026;-87
2023/11/30 10:20:05;;;;;;;10.15;6.82;;;-1.00;99.90;;;;;;5098369;28;20035;-85
2023/11/30 10:22:32;;;;;;;8.40;6.53;;;-1.10;99.90;;;;;;5116002;28;20015;-86
2023/11/30 10:24:58;;;;;;;9.50;5.60;;;-1.20;99.90;;;;;;5115418;28;20544;-86
2023/11/30 10:27:29;;;;;;;6.20;3.95;;;-1.30;99.90;;;;;;5108212;28;20052;-87
2023/11/30 10:30:00;;;;;;;6.20;4.22;;;-1.30;99.90;;;;;;5117534;28;20019;-87
2023/11/30 10:32:25;;;;;;;6.95;3.90;;;-1.50;99.90;;;;;;5119729;28;20029;-87
2023/11/30 10:34:56;;;;;;;5.28;4.05;;;-1.50;99.90;;;;;;5100185;28;20782;-86
2023/11/30 10:37:26;;;;;;;5.95;3.90;;;-1.50;99.90;;;;;;5087848;28;20115;-86
2023/11/30 10:40:08;;;;;;;5.78;4.05;;;-1.60;99.90;;;;;;5116390;28;20400;-86
2023/11/30 10:42:34;;;;;;;5.47;4.22;;;-1.60;99.90;;;;;;5098965;28;20114;-85
2023/11/30 10:45:06;;;;;;;6.63;4.05;;;-1.60;99.90;;;;;;5115168;28;20086;-86
2023/11/30 10:47:32;;;;;;;7.30;4.53;;;-1.60;99.90;;;;;;5098683;28;20027;-86
2023/11/30 10:50:00;;;;;;;6.05;3.03;;;-1.60;99.90;;;;;;5115763;28;20027;-87
2023/11/30 10:52:30;;;;;;;5.97;3.63;;;-1.60;99.90;;;;;;5095354;28;20024;-87
2023/11/30 10:55:08;;;;;;;6.18;4.60;;;-1.70;99.90;;;;;;5077244;28;20068;-87
2023/11/30 10:57:33;;;;;;;6.18;4.00;;;-1.70;99.90;;;;;;5095496;28;20016;-87
2023/11/30 10:59:59;;;;;;;6.47;3.50;;;-1.60;99.90;;;;;;5087330;28;20031;-86
2023/11/30 11:02:48;;;;;;;8.45;4.43;;;-1.70;99.90;;;;;;5097114;28;20041;-86
2023/11/30 11:05:18;;;;;;;13.32;5.22;;;-1.80;99.90;;;;;;5085972;28;20024;-87
2023/11/30 11:07:58;;;;;;;7.18;4.88;;;-1.80;99.90;;;;;;5099670;28;20085;-86
2023/11/30 11:10:38;;;;;;;6.03;4.15;;;-1.80;99.90;;;;;;5088305;28;20374;-87
2023/11/30 11:13:05;;;;;;;7.70;3.78;;;-1.80;99.90;;;;;;5115505;28;20019;-86
2023/11/30 11:15:31;;;;;;;5.68;3.45;;;-1.80;99.90;;;;;;5117302;28;20480;-86
2023/11/30 11:18:08;;;;;;;5.32;3.63;;;-1.90;99.90;;;;;;5111836;28;20063;-86
2023/11/30 11:20:36;;;;;;;4.83;3.63;;;-1.90;99.90;;;;;;5088998;28;20118;-85
2023/11/30 11:23:09;;;;;;;6.68;3.97;;;-2.00;99.90;;;;;;5098929;28;20383;-86
2023/11/30 11:25:41;;;;;;;4.63;3.50;;;-2.00;99.90;;;;;;5100453;28;20088;-86
2023/11/30 11:28:07;;;;;;;7.55;4.80;;;-2.00;99.90;;;;;;5099913;28;20020;-87
2023/11/30 11:30:40;;;;;;;4.20;2.75;;;-2.00;99.90;;;;;;5128336;28;20022;-87
2023/11/30 11:33:06;;;;;;;7.97;3.67;;;-2.00;99.10;;;;;;5121185;28;20106;-87
2023/11/30 11:35:32;;;;;;;4.75;3.72;;;-2.10;98.80;;;;;;5111216;28;20077;-87
2023/11/30 11:37:58;;;;;;;6.30;3.63;;;-2.20;98.40;;;;;;5121718;28;20038;-86
2023/11/30 11:40:25;;;;;;;5.53;3.55;;;-2.30;99.20;;;;;;5100421;28;20435;-86
2023/11/30 11:42:52;;;;;;;3.65;2.75;;;-2.30;98.90;;;;;;5111978;28;20031;-85
2023/11/30 11:45:18;;;;;;;8.73;4.63;;;-2.30;99.00;;;;;;5118034;28;20092;-87
2023/11/30 11:47:44;;;;;;;4.35;3.60;;;-2.30;99.20;;;;;;5112592;28;20016;-87
2023/11/30 11:50:12;;;;;;;3.65;3.30;;;-2.30;99.20;;;;;;5111055;28;20032;-87
2023/11/30 11:52:39;;;;;;;5.45;2.63;;;-2.30;99.10;;;;;;5126171;28;20027;-88
2023/11/30 11:55:11;;;;;;;3.72;2.70;;;-2.30;99.40;;;;;;5110155;28;20090;-84
2023/11/30 11:57:38;;;;;;;4.93;3.30;;;-2.40;99.00;;;;;;5111075;28;20013;-87
2023/11/30 12:00:05;;;;;;;;;;;-2.40;99.40;;;;;;5105470;28;20063;-86
2023/11/30 12:02:34;;;;;;;6.95;3.97;;;-2.40;99.70;;;;;;5098477;28;20259;-86
2023/11/30 12:05:14;;;;;;;7.15;4.13;;;-2.40;99.90;;;;;;5104639;28;20062;-87
2023/11/30 12:08:00;;;;;;;7.00;3.40;;;-2.30;99.90;;;;;;5115380;28;20444;-87
2023/11/30 12:10:37;;;;;;;6.45;4.40;;;-2.40;99.90;;;;;;5094388;28;20024;-85
2023/11/30 12:13:06;;;;;;;6.82;4.68;;;-2.50;99.90;;;;;;5096743;28;20503;-86
2023/11/30 12:15:32;;;;;;;3.92;2.80;;;-2.50;99.90;;;;;;5115758;28;20031;-87
2023/11/30 12:17:59;;;;;;;6.30;4.03;;;-2.50;99.90;;;;;;5100342;28;20043;-87
2023/11/30 12:20:25;;;;;;;3.67;2.97;;;-2.60;99.90;;;;;;5116503;28;20027;-87
2023/11/30 12:22:51;;;;;;;4.90;3.15;;;-2.70;99.90;;;;;;5101696;28;20257;-88
2023/11/30 12:25:17;;;;;;;14.75;5.07;;;-2.80;99.90;;;;;;5113354;28;20160;-88
2023/11/30 12:27:43;;;;;;;5.65;3.90;;;-2.80;99.90;;;;;;5117083;28;20042;-88
2023/11/30 12:30:09;;;;;;;4.57;3.47;;;-2.80;99.90;;;;;;5115753;28;20012;-88
2023/11/30 12:32:37;;;;;;;4.80;3.33;;;-2.90;99.90;;;;;;5073223;28;20032;-86
2023/11/30 12:35:04;;;;;;;7.68;3.72;;;-2.90;99.90;;;;;;5064219;28;20037;-87
2023/11/30 12:37:31;;;;;;;5.47;3.28;;;-2.90;99.90;;;;;;5065697;28;20482;-88
2023/11/30 12:39:58;;;;;;;7.95;4.10;;;-2.90;99.90;;;;;;5084027;28;20565;-87
2023/11/30 12:42:24;;;;;;;4.95;2.92;;;-2.90;99.90;;;;;;5090166;28;20056;-86
2023/11/30 12:44:50;;;;;;;5.30;3.60;;;-2.90;99.90;;;;;;5087695;28;20048;-88